sensor_id;sensor_type;location;lat;lon;timestamp;temperature;humidity
5508;DHT22;2776;51.046;6.772;2022-12-20T00:00:49;10.60;99.90
5508;DHT22;2776;51.046;6.772;2022-12-20T00:03:16;10.70;99.90
5508;DHT22;2776;51.046;6.772;2022-12-20T00:05:43;10.60;99.90
5508;DHT22;2776;51.046;6.772;2022-12-20T00:08:10;10.60;99.90
5508;DHT22;2776;51.046;6.772;2022-12-20T00:10:39;10.70;99.90
5508;DHT22;2776;51.046;6.772;2022-12-20T00:13:06;10.70;99.90
5508;DHT22;2776;51.046;6.772;2022-12-20T00:15:34;10.80;99.90
5508;DHT22;2776;51.046;6.772;2022-12-20T00:18:01;10.80;99.90
5508;DHT22;2776;51.046;6.772;2022-12-20T00:20:28;10.80;99.90
5508;DHT22;2776;51.046;6.772;2022-12-20T00:22:55;10.70;99.90
5508;DHT22;2776;51.046;6.772;2022-12-20T00:25:22;10.70;99.90
5508;DHT22;2776;51.046;6.772;2022-12-20T00:27:50;10.70;99.90
5508;DHT22;2776;51.046;6.772;2022-12-20T00:30:17;10.70;99.90
5508;DHT22;2776;51.046;6.772;2022-12-20T00:32:44;10.70;99.90
5508;DHT22;2776;51.046;6.772;2022-12-20T00:35:11;10.80;99.90
5508;DHT22;2776;51.046;6.772;2022-12-20T00:37:38;10.70;99.90
5508;DHT22;2776;51.046;6.772;2022-12-20T00:40:06;10.70;99.90
5508;DHT22;2776;51.046;6.772;2022-12-20T00:42:33;10.70;99.90
5508;DHT22;2776;51.046;6.772;2022-12-20T00:45:01;10.80;99.90
5508;DHT22;2776;51.046;6.772;2022-12-20T00:47:28;10.80;99.90
5508;DHT22;2776;51.046;6.772;2022-12-20T00:49:54;10.80;99.90
5508;DHT22;2776;51.046;6.772;2022-12-20T00:52:21;10.80;99.90
5508;DHT22;2776;51.046;6.772;2022-12-20T00:54:48;10.80;99.90
5508;DHT22;2776;51.046;6.772;2022-12-20T00:57:14;10.90;99.90
5508;DHT22;2776;51.046;6.772;2022-12-20T00:59:41;10.90;99.90
5508;DHT22;2776;51.046;6.772;2022-12-20T01:02:09;10.90;99.90
5508;DHT22;2776;51.046;6.772;2022-12-20T01:04:36;10.80;99.90
5508;DHT22;2776;51.046;6.772;2022-12-20T01:07:02;10.70;99.90
5508;DHT22;2776;51.046;6.772;2022-12-20T01:09:30;10.70;99.90
5508;DHT22;2776;51.046;6.772;2022-12-20T01:11:57;10.70;99.90
5508;DHT22;2776;51.046;6.772;2022-12-20T01:14:24;10.70;99.90
5508;DHT22;2776;51.046;6.772;2022-12-20T01:16:50;10.60;99.90
5508;DHT22;2776;51.046;6.772;2022-12-20T01:19:18;10.60;99.90
5508;DHT22;2776;51.046;6.772;2022-12-20T01:21:45;10.60;99.90
5508;DHT22;2776;51.046;6.772;2022-12-20T01:24:12;10.50;99.90
5508;DHT22;2776;51.046;6.772;2022-12-20T01:26:40;10.50;99.90
5508;DHT22;2776;51.046;6.772;2022-12-20T01:29:07;10.60;99.90
5508;DHT22;2776;51.046;6.772;2022-12-20T01:31:34;10.60;99.90
5508;DHT22;2776;51.046;6.772;2022-12-20T01:34:01;10.60;99.90
5508;DHT22;2776;51.046;6.772;2022-12-20T01:36:31;10.60;99.90
5508;DHT22;2776;51.046;6.772;2022-12-20T01:38:59;10.50;99.90
5508;DHT22;2776;51.046;6.772;2022-12-20T01:41:28;10.60;99.90
5508;DHT22;2776;51.046;6.772;2022-12-20T01:43:56;10.60;99.90
5508;DHT22;2776;51.046;6.772;2022-12-20T01:46:25;10.60;99.90
5508;DHT22;2776;51.046;6.772;2022-12-20T01:48:55;10.60;99.90
5508;DHT22;2776;51.046;6.772;2022-12-20T01:51:24;10.50;99.90
5508;DHT22;2776;51.046;6.772;2022-12-20T01:53:57;10.60;99.90
5508;DHT22;2776;51.046;6.772;2022-12-20T01:56:26;10.60;99.90
5508;DHT22;2776;51.046;6.772;2022-12-20T01:58:54;10.60;99.90
5508;DHT22;2776;51.046;6.772;2022-12-20T02:01:22;10.60;99.90
5508;DHT22;2776;51.046;6.772;2022-12-20T02:03:50;10.70;99.90
5508;DHT22;2776;51.046;6.772;2022-12-20T02:06:21;10.70;99.90
5508;DHT22;2776;51.046;6.772;2022-12-20T02:08:49;10.70;99.90
5508;DHT22;2776;51.046;6.772;2022-12-20T02:11:35;10.80;99.90
5508;DHT22;2776;51.046;6.772;2022-12-20T02:14:10;10.70;99.90
5508;DHT22;2776;51.046;6.772;2022-12-20T02:16:44;10.70;99.90
5508;DHT22;2776;51.046;6.772;2022-12-20T02:19:26;10.80;99.90
5508;DHT22;2776;51.046;6.772;2022-12-20T02:22:03;10.70;99.90
5508;DHT22;2776;51.046;6.772;2022-12-20T02:24:50;10.80;99.90
5508;DHT22;2776;51.046;6.772;2022-12-20T02:27:41;10.80;99.90
5508;DHT22;2776;51.046;6.772;2022-12-20T02:30:13;10.80;99.90
5508;DHT22;2776;51.046;6.772;2022-12-20T02:32:47;10.90;99.90
5508;DHT22;2776;51.046;6.772;2022-12-20T02:35:19;10.80;99.90
5508;DHT22;2776;51.046;6.772;2022-12-20T02:37:48;10.90;99.90
5508;DHT22;2776;51.046;6.772;2022-12-20T02:40:17;10.90;99.90
5508;DHT22;2776;51.046;6.772;2022-12-20T02:42:45;10.90;99.90
5508;DHT22;2776;51.046;6.772;2022-12-20T02:45:15;10.80;99.90
5508;DHT22;2776;51.046;6.772;2022-12-20T02:47:48;10.90;99.90
5508;DHT22;2776;51.046;6.772;2022-12-20T02:50:19;10.90;99.90
5508;DHT22;2776;51.046;6.772;2022-12-20T02:52:46;10.80;99.90
5508;DHT22;2776;51.046;6.772;2022-12-20T02:55:13;10.80;99.90
5508;DHT22;2776;51.046;6.772;2022-12-20T02:57:44;10.80;99.90
5508;DHT22;2776;51.046;6.772;2022-12-20T03:00:16;10.80;99.90
5508;DHT22;2776;51.046;6.772;2022-12-20T03:02:44;10.70;99.90
5508;DHT22;2776;51.046;6.772;2022-12-20T03:05:31;10.70;99.90
5508;DHT22;2776;51.046;6.772;2022-12-20T03:08:00;10.70;99.90
5508;DHT22;2776;51.046;6.772;2022-12-20T03:10:27;10.60;99.90
5508;DHT22;2776;51.046;6.772;2022-12-20T03:12:54;10.60;99.90
5508;DHT22;2776;51.046;6.772;2022-12-20T03:15:22;10.50;99.90
5508;DHT22;2776;51.046;6.772;2022-12-20T03:17:48;10.50;99.90
5508;DHT22;2776;51.046;6.772;2022-12-20T03:20:15;10.40;99.90
5508;DHT22;2776;51.046;6.772;2022-12-20T03:22:42;10.40;99.90
5508;DHT22;2776;51.046;6.772;2022-12-20T03:25:09;10.30;99.90
5508;DHT22;2776;51.046;6.772;2022-12-20T03:27:36;10.30;99.90
5508;DHT22;2776;51.046;6.772;2022-12-20T03:30:03;10.30;99.90
5508;DHT22;2776;51.046;6.772;2022-12-20T03:32:32;10.30;99.90
5508;DHT22;2776;51.046;6.772;2022-12-20T03:34:59;10.40;99.90
5508;DHT22;2776;51.046;6.772;2022-12-20T03:37:26;10.30;99.90
5508;DHT22;2776;51.046;6.772;2022-12-20T03:39:52;10.30;99.90
5508;DHT22;2776;51.046;6.772;2022-12-20T03:42:19;10.30;99.90
5508;DHT22;2776;51.046;6.772;2022-12-20T03:44:46;10.30;99.90
5508;DHT22;2776;51.046;6.772;2022-12-20T03:47:12;10.20;99.90
5508;DHT22;2776;51.046;6.772;2022-12-20T03:49:41;10.30;99.90
5508;DHT22;2776;51.046;6.772;2022-12-20T03:52:09;10.20;99.90
5508;DHT22;2776;51.046;6.772;2022-12-20T03:54:37;10.30;99.90
5508;DHT22;2776;51.046;6.772;2022-12-20T03:57:04;10.30;99.90
5508;DHT22;2776;51.046;6.772;2022-12-20T03:59:30;10.30;99.90
5508;DHT22;2776;51.046;6.772;2022-12-20T04:01:57;10.30;99.90
5508;DHT22;2776;51.046;6.772;2022-12-20T04:04:24;10.20;99.90
5508;DHT22;2776;51.046;6.772;2022-12-20T04:06:52;10.30;99.90
5508;DHT22;2776;51.046;6.772;2022-12-20T04:09:18;10.30;99.90
5508;DHT22;2776;51.046;6.772;2022-12-20T04:11:45;10.30;99.90
5508;DHT22;2776;51.046;6.772;2022-12-20T04:14:12;10.30;99.90
5508;DHT22;2776;51.046;6.772;2022-12-20T04:16:38;10.30;99.90
5508;DHT22;2776;51.046;6.772;2022-12-20T04:19:05;10.30;99.90
5508;DHT22;2776;51.046;6.772;2022-12-20T04:21:34;10.30;99.90
5508;DHT22;2776;51.046;6.772;2022-12-20T04:24:03;10.30;99.90
5508;DHT22;2776;51.046;6.772;2022-12-20T04:26:30;10.30;99.90
5508;DHT22;2776;51.046;6.772;2022-12-20T04:28:57;10.30;99.90
5508;DHT22;2776;51.046;6.772;2022-12-20T04:31:24;10.20;99.90
5508;DHT22;2776;51.046;6.772;2022-12-20T04:33:52;10.20;99.90
5508;DHT22;2776;51.046;6.772;2022-12-20T04:36:19;10.10;99.90
5508;DHT22;2776;51.046;6.772;2022-12-20T04:38:46;10.10;99.90
5508;DHT22;2776;51.046;6.772;2022-12-20T04:41:14;10.00;99.90
5508;DHT22;2776;51.046;6.772;2022-12-20T04:43:48;9.90;99.90
5508;DHT22;2776;51.046;6.772;2022-12-20T04:46:15;9.90;99.90
5508;DHT22;2776;51.046;6.772;2022-12-20T04:48:41;9.90;99.90
5508;DHT22;2776;51.046;6.772;2022-12-20T04:51:08;9.90;99.90
5508;DHT22;2776;51.046;6.772;2022-12-20T04:53:35;9.80;99.90
5508;DHT22;2776;51.046;6.772;2022-12-20T04:56:15;9.80;99.90
5508;DHT22;2776;51.046;6.772;2022-12-20T04:58:43;9.80;99.90
5508;DHT22;2776;51.046;6.772;2022-12-20T05:01:10;9.80;99.90
5508;DHT22;2776;51.046;6.772;2022-12-20T05:03:37;9.80;99.90
5508;DHT22;2776;51.046;6.772;2022-12-20T05:06:04;9.80;99.90
5508;DHT22;2776;51.046;6.772;2022-12-20T05:08:31;9.80;99.90
5508;DHT22;2776;51.046;6.772;2022-12-20T05:10:58;9.80;99.90
5508;DHT22;2776;51.046;6.772;2022-12-20T05:13:26;9.80;99.90
5508;DHT22;2776;51.046;6.772;2022-12-20T05:15:54;9.80;99.90
5508;DHT22;2776;51.046;6.772;2022-12-20T05:18:22;9.90;99.90
5508;DHT22;2776;51.046;6.772;2022-12-20T05:20:48;9.90;99.90
5508;DHT22;2776;51.046;6.772;2022-12-20T05:23:36;9.90;99.90
5508;DHT22;2776;51.046;6.772;2022-12-20T05:26:21;9.90;99.90
5508;DHT22;2776;51.046;6.772;2022-12-20T05:28:50;9.90;99.90
5508;DHT22;2776;51.046;6.772;2022-12-20T05:31:17;9.90;99.90
5508;DHT22;2776;51.046;6.772;2022-12-20T05:33:44;9.90;99.90
5508;DHT22;2776;51.046;6.772;2022-12-20T05:36:11;9.90;99.90
5508;DHT22;2776;51.046;6.772;2022-12-20T05:38:38;9.90;99.90
5508;DHT22;2776;51.046;6.772;2022-12-20T05:41:05;9.90;99.90
5508;DHT22;2776;51.046;6.772;2022-12-20T05:43:32;9.90;99.90
5508;DHT22;2776;51.046;6.772;2022-12-20T05:46:00;9.90;99.90
5508;DHT22;2776;51.046;6.772;2022-12-20T05:48:27;10.00;99.90
5508;DHT22;2776;51.046;6.772;2022-12-20T05:50:53;10.10;99.90
5508;DHT22;2776;51.046;6.772;2022-12-20T05:53:20;10.10;99.90
5508;DHT22;2776;51.046;6.772;2022-12-20T05:55:49;10.10;99.90
5508;DHT22;2776;51.046;6.772;2022-12-20T05:58:16;10.10;99.90
5508;DHT22;2776;51.046;6.772;2022-12-20T06:00:43;10.20;99.90
5508;DHT22;2776;51.046;6.772;2022-12-20T06:03:13;10.20;99.90
5508;DHT22;2776;51.046;6.772;2022-12-20T06:05:41;10.20;99.90
5508;DHT22;2776;51.046;6.772;2022-12-20T06:08:08;10.20;99.90
5508;DHT22;2776;51.046;6.772;2022-12-20T06:10:35;10.20;99.90
5508;DHT22;2776;51.046;6.772;2022-12-20T06:13:04;10.20;99.90
5508;DHT22;2776;51.046;6.772;2022-12-20T06:15:31;10.20;99.90
5508;DHT22;2776;51.046;6.772;2022-12-20T06:17:57;10.20;99.90
5508;DHT22;2776;51.046;6.772;2022-12-20T06:20:26;10.30;99.90
5508;DHT22;2776;51.046;6.772;2022-12-20T06:22:53;10.40;99.90
5508;DHT22;2776;51.046;6.772;2022-12-20T06:25:19;10.40;99.90
5508;DHT22;2776;51.046;6.772;2022-12-20T06:27:47;10.30;99.90
5508;DHT22;2776;51.046;6.772;2022-12-20T06:30:14;10.30;99.90
5508;DHT22;2776;51.046;6.772;2022-12-20T06:32:41;10.30;99.90
5508;DHT22;2776;51.046;6.772;2022-12-20T06:35:08;10.30;99.90
5508;DHT22;2776;51.046;6.772;2022-12-20T06:37:36;10.30;99.90
5508;DHT22;2776;51.046;6.772;2022-12-20T06:40:05;10.30;99.90
5508;DHT22;2776;51.046;6.772;2022-12-20T06:42:32;10.30;99.90
5508;DHT22;2776;51.046;6.772;2022-12-20T06:44:59;10.20;99.90
5508;DHT22;2776;51.046;6.772;2022-12-20T06:47:26;10.20;99.90
5508;DHT22;2776;51.046;6.772;2022-12-20T06:49:52;10.20;99.90
5508;DHT22;2776;51.046;6.772;2022-12-20T06:52:19;10.20;99.90
5508;DHT22;2776;51.046;6.772;2022-12-20T06:54:47;10.20;99.90
5508;DHT22;2776;51.046;6.772;2022-12-20T06:57:14;10.20;99.90
5508;DHT22;2776;51.046;6.772;2022-12-20T06:59:41;10.20;99.90
5508;DHT22;2776;51.046;6.772;2022-12-20T07:02:09;10.20;99.90
5508;DHT22;2776;51.046;6.772;2022-12-20T07:04:35;10.20;99.90
5508;DHT22;2776;51.046;6.772;2022-12-20T07:07:03;10.20;99.90
5508;DHT22;2776;51.046;6.772;2022-12-20T07:09:30;10.10;99.90
5508;DHT22;2776;51.046;6.772;2022-12-20T07:11:58;10.10;99.90
5508;DHT22;2776;51.046;6.772;2022-12-20T07:14:25;10.10;99.90
5508;DHT22;2776;51.046;6.772;2022-12-20T07:16:52;10.10;99.90
5508;DHT22;2776;51.046;6.772;2022-12-20T07:19:19;10.10;99.90
5508;DHT22;2776;51.046;6.772;2022-12-20T07:21:46;10.00;99.90
5508;DHT22;2776;51.046;6.772;2022-12-20T07:24:13;10.10;99.90
5508;DHT22;2776;51.046;6.772;2022-12-20T07:26:40;10.10;99.90
5508;DHT22;2776;51.046;6.772;2022-12-20T07:29:08;10.10;99.90
5508;DHT22;2776;51.046;6.772;2022-12-20T07:31:34;10.10;99.90
5508;DHT22;2776;51.046;6.772;2022-12-20T07:34:01;10.10;99.90
5508;DHT22;2776;51.046;6.772;2022-12-20T07:36:28;10.10;99.90
5508;DHT22;2776;51.046;6.772;2022-12-20T07:38:54;10.00;99.90
5508;DHT22;2776;51.046;6.772;2022-12-20T07:41:21;10.00;99.90
5508;DHT22;2776;51.046;6.772;2022-12-20T07:43:49;10.00;99.90
5508;DHT22;2776;51.046;6.772;2022-12-20T07:46:17;10.00;99.90
5508;DHT22;2776;51.046;6.772;2022-12-20T07:48:44;10.10;99.90
5508;DHT22;2776;51.046;6.772;2022-12-20T07:51:13;10.10;99.90
5508;DHT22;2776;51.046;6.772;2022-12-20T07:53:45;10.10;99.90
5508;DHT22;2776;51.046;6.772;2022-12-20T07:56:13;10.10;99.90
5508;DHT22;2776;51.046;6.772;2022-12-20T07:58:41;10.10;99.90
5508;DHT22;2776;51.046;6.772;2022-12-20T08:01:09;10.10;99.90
5508;DHT22;2776;51.046;6.772;2022-12-20T08:03:42;10.10;99.90
5508;DHT22;2776;51.046;6.772;2022-12-20T08:06:10;10.10;99.90
5508;DHT22;2776;51.046;6.772;2022-12-20T08:08:40;10.00;99.90
5508;DHT22;2776;51.046;6.772;2022-12-20T08:11:09;10.00;99.90
5508;DHT22;2776;51.046;6.772;2022-12-20T08:13:36;10.00;99.90
5508;DHT22;2776;51.046;6.772;2022-12-20T08:16:05;10.00;99.90
5508;DHT22;2776;51.046;6.772;2022-12-20T08:18:32;9.90;99.90
5508;DHT22;2776;51.046;6.772;2022-12-20T08:21:00;9.90;99.90
5508;DHT22;2776;51.046;6.772;2022-12-20T08:23:27;9.90;99.90
5508;DHT22;2776;51.046;6.772;2022-12-20T08:25:54;9.90;99.90
5508;DHT22;2776;51.046;6.772;2022-12-20T08:28:21;10.00;99.90
5508;DHT22;2776;51.046;6.772;2022-12-20T08:30:48;10.00;99.90
5508;DHT22;2776;51.046;6.772;2022-12-20T08:33:15;10.00;99.90
5508;DHT22;2776;51.046;6.772;2022-12-20T08:35:41;10.00;99.90
5508;DHT22;2776;51.046;6.772;2022-12-20T08:38:09;10.00;99.90
5508;DHT22;2776;51.046;6.772;2022-12-20T08:40:36;10.10;99.90
5508;DHT22;2776;51.046;6.772;2022-12-20T08:43:03;10.10;99.90
5508;DHT22;2776;51.046;6.772;2022-12-20T08:45:29;10.10;99.90
5508;DHT22;2776;51.046;6.772;2022-12-20T08:47:56;10.10;99.90
5508;DHT22;2776;51.046;6.772;2022-12-20T08:50:23;10.10;99.90
5508;DHT22;2776;51.046;6.772;2022-12-20T08:52:51;10.10;99.90
5508;DHT22;2776;51.046;6.772;2022-12-20T08:55:19;10.20;99.90
5508;DHT22;2776;51.046;6.772;2022-12-20T08:57:46;10.20;99.90
5508;DHT22;2776;51.046;6.772;2022-12-20T09:00:13;10.30;99.90
5508;DHT22;2776;51.046;6.772;2022-12-20T09:02:40;10.30;99.90
5508;DHT22;2776;51.046;6.772;2022-12-20T09:05:07;10.40;99.90
5508;DHT22;2776;51.046;6.772;2022-12-20T09:07:34;10.30;99.90
5508;DHT22;2776;51.046;6.772;2022-12-20T09:10:01;10.40;99.90
5508;DHT22;2776;51.046;6.772;2022-12-20T09:12:30;10.40;99.90
5508;DHT22;2776;51.046;6.772;2022-12-20T09:14:56;10.40;99.90
5508;DHT22;2776;51.046;6.772;2022-12-20T09:17:23;10.50;99.90
5508;DHT22;2776;51.046;6.772;2022-12-20T09:19:50;10.40;99.90
5508;DHT22;2776;51.046;6.772;2022-12-20T09:22:16;10.40;99.90
5508;DHT22;2776;51.046;6.772;2022-12-20T09:24:43;10.50;99.90
5508;DHT22;2776;51.046;6.772;2022-12-20T09:27:10;10.40;99.90
5508;DHT22;2776;51.046;6.772;2022-12-20T09:29:38;10.40;99.90
5508;DHT22;2776;51.046;6.772;2022-12-20T09:32:05;10.40;99.90
5508;DHT22;2776;51.046;6.772;2022-12-20T09:34:31;10.40;99.90
5508;DHT22;2776;51.046;6.772;2022-12-20T09:36:58;10.40;99.90
5508;DHT22;2776;51.046;6.772;2022-12-20T09:39:25;10.50;99.90
5508;DHT22;2776;51.046;6.772;2022-12-20T09:41:52;10.50;99.90
5508;DHT22;2776;51.046;6.772;2022-12-20T09:44:23;10.50;99.90
5508;DHT22;2776;51.046;6.772;2022-12-20T09:46:54;10.50;99.90
5508;DHT22;2776;51.046;6.772;2022-12-20T09:49:26;10.50;99.90
5508;DHT22;2776;51.046;6.772;2022-12-20T09:52:10;10.50;99.90
5508;DHT22;2776;51.046;6.772;2022-12-20T09:54:49;10.60;99.90
5508;DHT22;2776;51.046;6.772;2022-12-20T09:57:22;10.60;99.90
5508;DHT22;2776;51.046;6.772;2022-12-20T09:59:51;10.60;99.90
5508;DHT22;2776;51.046;6.772;2022-12-20T10:02:23;10.70;99.90
5508;DHT22;2776;51.046;6.772;2022-12-20T10:04:51;10.70;99.90
5508;DHT22;2776;51.046;6.772;2022-12-20T10:07:27;10.70;99.90
5508;DHT22;2776;51.046;6.772;2022-12-20T10:10:16;10.80;99.90
5508;DHT22;2776;51.046;6.772;2022-12-20T10:12:52;10.70;99.90
5508;DHT22;2776;51.046;6.772;2022-12-20T10:15:24;10.70;99.90
5508;DHT22;2776;51.046;6.772;2022-12-20T10:18:10;10.70;99.90
5508;DHT22;2776;51.046;6.772;2022-12-20T10:20:52;10.80;99.90
5508;DHT22;2776;51.046;6.772;2022-12-20T10:23:24;10.70;99.90
5508;DHT22;2776;51.046;6.772;2022-12-20T10:25:55;10.80;99.90
5508;DHT22;2776;51.046;6.772;2022-12-20T10:28:25;10.80;99.90
5508;DHT22;2776;51.046;6.772;2022-12-20T10:30:53;10.90;99.90
5508;DHT22;2776;51.046;6.772;2022-12-20T10:33:22;10.90;99.90
5508;DHT22;2776;51.046;6.772;2022-12-20T10:35:50;10.90;99.90
5508;DHT22;2776;51.046;6.772;2022-12-20T10:38:17;10.90;99.90
5508;DHT22;2776;51.046;6.772;2022-12-20T10:40:47;10.90;99.90
5508;DHT22;2776;51.046;6.772;2022-12-20T10:43:16;10.90;99.90
5508;DHT22;2776;51.046;6.772;2022-12-20T10:45:53;11.00;99.90
5508;DHT22;2776;51.046;6.772;2022-12-20T10:48:29;11.10;99.90
5508;DHT22;2776;51.046;6.772;2022-12-20T10:50:58;11.10;99.90
5508;DHT22;2776;51.046;6.772;2022-12-20T10:53:26;11.10;99.90
5508;DHT22;2776;51.046;6.772;2022-12-20T10:55:54;11.20;99.90
5508;DHT22;2776;51.046;6.772;2022-12-20T10:58:35;11.20;99.90
5508;DHT22;2776;51.046;6.772;2022-12-20T11:01:05;11.30;99.90
5508;DHT22;2776;51.046;6.772;2022-12-20T11:03:49;11.40;99.90
5508;DHT22;2776;51.046;6.772;2022-12-20T11:06:17;11.50;99.90
5508;DHT22;2776;51.046;6.772;2022-12-20T11:08:45;11.50;99.90
5508;DHT22;2776;51.046;6.772;2022-12-20T11:11:15;11.60;99.90
5508;DHT22;2776;51.046;6.772;2022-12-20T11:13:43;11.60;99.90
5508;DHT22;2776;51.046;6.772;2022-12-20T11:16:25;11.70;99.90
5508;DHT22;2776;51.046;6.772;2022-12-20T11:19:05;11.70;99.90
5508;DHT22;2776;51.046;6.772;2022-12-20T11:21:42;11.70;99.90
5508;DHT22;2776;51.046;6.772;2022-12-20T11:24:16;11.70;99.90
5508;DHT22;2776;51.046;6.772;2022-12-20T11:26:57;11.80;99.90
5508;DHT22;2776;51.046;6.772;2022-12-20T11:29:42;11.80;99.90
5508;DHT22;2776;51.046;6.772;2022-12-20T11:32:21;11.80;99.90
5508;DHT22;2776;51.046;6.772;2022-12-20T11:34:58;11.90;99.90
5508;DHT22;2776;51.046;6.772;2022-12-20T11:37:32;11.90;99.90
5508;DHT22;2776;51.046;6.772;2022-12-20T11:40:25;11.80;99.90
5508;DHT22;2776;51.046;6.772;2022-12-20T11:43:03;11.90;99.90
5508;DHT22;2776;51.046;6.772;2022-12-20T11:45:42;11.90;99.90
5508;DHT22;2776;51.046;6.772;2022-12-20T11:48:29;11.90;99.90
5508;DHT22;2776;51.046;6.772;2022-12-20T11:51:03;12.00;99.90
5508;DHT22;2776;51.046;6.772;2022-12-20T11:53:35;12.00;99.90
5508;DHT22;2776;51.046;6.772;2022-12-20T11:56:07;12.10;99.90
5508;DHT22;2776;51.046;6.772;2022-12-20T11:58:46;12.10;99.90
5508;DHT22;2776;51.046;6.772;2022-12-20T12:01:16;12.10;99.90
5508;DHT22;2776;51.046;6.772;2022-12-20T12:03:47;12.10;99.90
5508;DHT22;2776;51.046;6.772;2022-12-20T12:06:22;12.00;99.90
5508;DHT22;2776;51.046;6.772;2022-12-20T12:08:54;12.00;99.90
5508;DHT22;2776;51.046;6.772;2022-12-20T12:11:27;12.00;99.90
5508;DHT22;2776;51.046;6.772;2022-12-20T12:13:57;12.10;99.90
5508;DHT22;2776;51.046;6.772;2022-12-20T12:16:27;12.10;99.90
5508;DHT22;2776;51.046;6.772;2022-12-20T12:18:57;12.20;99.90
5508;DHT22;2776;51.046;6.772;2022-12-20T12:21:30;12.10;99.90
5508;DHT22;2776;51.046;6.772;2022-12-20T12:24:03;12.20;99.90
5508;DHT22;2776;51.046;6.772;2022-12-20T12:26:34;12.10;99.90
5508;DHT22;2776;51.046;6.772;2022-12-20T12:29:03;12.20;99.90
5508;DHT22;2776;51.046;6.772;2022-12-20T12:31:37;12.30;99.90
5508;DHT22;2776;51.046;6.772;2022-12-20T12:34:15;12.30;99.90
5508;DHT22;2776;51.046;6.772;2022-12-20T12:40:20;12.30;99.90
5508;DHT22;2776;51.046;6.772;2022-12-20T12:43:04;12.40;99.90
5508;DHT22;2776;51.046;6.772;2022-12-20T12:45:39;12.40;99.90
5508;DHT22;2776;51.046;6.772;2022-12-20T12:48:13;12.40;99.90
5508;DHT22;2776;51.046;6.772;2022-12-20T12:50:45;12.40;99.90
5508;DHT22;2776;51.046;6.772;2022-12-20T12:53:16;12.40;99.90
5508;DHT22;2776;51.046;6.772;2022-12-20T12:55:44;12.40;99.90
5508;DHT22;2776;51.046;6.772;2022-12-20T12:58:14;12.30;99.90
5508;DHT22;2776;51.046;6.772;2022-12-20T13:00:56;12.30;99.90
5508;DHT22;2776;51.046;6.772;2022-12-20T13:03:44;12.30;99.90
5508;DHT22;2776;51.046;6.772;2022-12-20T13:09:41;12.10;99.90
5508;DHT22;2776;51.046;6.772;2022-12-20T13:15:47;11.90;99.90
5508;DHT22;2776;51.046;6.772;2022-12-20T13:18:27;11.80;99.90
5508;DHT22;2776;51.046;6.772;2022-12-20T13:21:16;11.70;99.90
5508;DHT22;2776;51.046;6.772;2022-12-20T13:23:43;11.70;99.90
5508;DHT22;2776;51.046;6.772;2022-12-20T13:26:48;11.60;99.90
5508;DHT22;2776;51.046;6.772;2022-12-20T13:29:27;11.50;99.90
5508;DHT22;2776;51.046;6.772;2022-12-20T13:31:53;11.50;99.90
5508;DHT22;2776;51.046;6.772;2022-12-20T13:34:38;11.50;99.90
5508;DHT22;2776;51.046;6.772;2022-12-20T13:37:26;11.60;99.90
5508;DHT22;2776;51.046;6.772;2022-12-20T13:39:54;11.60;99.90
5508;DHT22;2776;51.046;6.772;2022-12-20T13:42:33;11.60;99.90
5508;DHT22;2776;51.046;6.772;2022-12-20T13:45:04;11.60;99.90
5508;DHT22;2776;51.046;6.772;2022-12-20T13:47:41;11.60;99.90
5508;DHT22;2776;51.046;6.772;2022-12-20T13:50:31;11.50;99.90
5508;DHT22;2776;51.046;6.772;2022-12-20T13:53:00;11.40;99.90
5508;DHT22;2776;51.046;6.772;2022-12-20T13:55:34;11.40;99.90
5508;DHT22;2776;51.046;6.772;2022-12-20T13:58:10;11.40;99.90
5508;DHT22;2776;51.046;6.772;2022-12-20T14:00:38;11.40;99.90
5508;DHT22;2776;51.046;6.772;2022-12-20T14:03:16;11.40;99.90
5508;DHT22;2776;51.046;6.772;2022-12-20T14:05:44;11.40;99.90
5508;DHT22;2776;51.046;6.772;2022-12-20T14:08:14;11.40;99.90
5508;DHT22;2776;51.046;6.772;2022-12-20T14:10:41;11.40;99.90
5508;DHT22;2776;51.046;6.772;2022-12-20T14:13:19;11.50;99.90
5508;DHT22;2776;51.046;6.772;2022-12-20T14:15:46;11.50;99.90
5508;DHT22;2776;51.046;6.772;2022-12-20T14:18:16;11.50;99.90
5508;DHT22;2776;51.046;6.772;2022-12-20T14:20:46;11.60;99.90
5508;DHT22;2776;51.046;6.772;2022-12-20T14:23:16;11.60;99.90
5508;DHT22;2776;51.046;6.772;2022-12-20T14:25:46;11.60;99.90
5508;DHT22;2776;51.046;6.772;2022-12-20T14:28:26;11.60;99.90
5508;DHT22;2776;51.046;6.772;2022-12-20T14:30:55;11.60;99.90
5508;DHT22;2776;51.046;6.772;2022-12-20T14:33:28;11.60;99.90
5508;DHT22;2776;51.046;6.772;2022-12-20T14:35:55;11.60;99.90
5508;DHT22;2776;51.046;6.772;2022-12-20T14:38:28;11.50;99.90
5508;DHT22;2776;51.046;6.772;2022-12-20T14:40:56;11.50;99.90
5508;DHT22;2776;51.046;6.772;2022-12-20T14:43:27;11.50;99.90
5508;DHT22;2776;51.046;6.772;2022-12-20T14:46:21;11.50;99.90
5508;DHT22;2776;51.046;6.772;2022-12-20T14:48:48;11.50;99.90
5508;DHT22;2776;51.046;6.772;2022-12-20T14:51:19;11.50;99.90
5508;DHT22;2776;51.046;6.772;2022-12-20T14:53:47;11.50;99.90
5508;DHT22;2776;51.046;6.772;2022-12-20T14:56:18;11.50;99.90
5508;DHT22;2776;51.046;6.772;2022-12-20T14:58:47;11.50;99.90
5508;DHT22;2776;51.046;6.772;2022-12-20T15:01:26;11.50;99.90
5508;DHT22;2776;51.046;6.772;2022-12-20T15:03:56;11.50;99.90
5508;DHT22;2776;51.046;6.772;2022-12-20T15:06:31;11.40;99.90
5508;DHT22;2776;51.046;6.772;2022-12-20T15:08:58;11.40;99.90
5508;DHT22;2776;51.046;6.772;2022-12-20T15:11:25;11.30;99.90
5508;DHT22;2776;51.046;6.772;2022-12-20T15:13:53;11.20;99.90
5508;DHT22;2776;51.046;6.772;2022-12-20T15:16:22;11.10;99.90
5508;DHT22;2776;51.046;6.772;2022-12-20T15:18:50;11.00;99.90
5508;DHT22;2776;51.046;6.772;2022-12-20T15:21:24;10.90;99.90
5508;DHT22;2776;51.046;6.772;2022-12-20T15:23:54;11.00;99.90
5508;DHT22;2776;51.046;6.772;2022-12-20T15:26:23;11.00;99.90
5508;DHT22;2776;51.046;6.772;2022-12-20T15:28:50;10.90;99.90
5508;DHT22;2776;51.046;6.772;2022-12-20T15:31:20;10.90;99.90
5508;DHT22;2776;51.046;6.772;2022-12-20T15:33:49;10.80;99.90
5508;DHT22;2776;51.046;6.772;2022-12-20T15:36:17;10.80;99.90
5508;DHT22;2776;51.046;6.772;2022-12-20T15:38:44;10.80;99.90
5508;DHT22;2776;51.046;6.772;2022-12-20T15:41:16;10.80;99.90
5508;DHT22;2776;51.046;6.772;2022-12-20T15:43:44;10.70;99.90
5508;DHT22;2776;51.046;6.772;2022-12-20T15:46:11;10.70;99.90
5508;DHT22;2776;51.046;6.772;2022-12-20T15:48:39;10.70;99.90
5508;DHT22;2776;51.046;6.772;2022-12-20T15:51:13;10.70;99.90
5508;DHT22;2776;51.046;6.772;2022-12-20T15:53:41;10.70;99.90
5508;DHT22;2776;51.046;6.772;2022-12-20T15:56:16;10.70;99.90
5508;DHT22;2776;51.046;6.772;2022-12-20T15:58:43;10.70;99.90
5508;DHT22;2776;51.046;6.772;2022-12-20T16:01:12;10.70;99.90
5508;DHT22;2776;51.046;6.772;2022-12-20T16:03:42;10.70;99.90
5508;DHT22;2776;51.046;6.772;2022-12-20T16:06:10;10.70;99.90
5508;DHT22;2776;51.046;6.772;2022-12-20T16:08:37;10.70;99.90
5508;DHT22;2776;51.046;6.772;2022-12-20T16:11:05;10.70;99.90
5508;DHT22;2776;51.046;6.772;2022-12-20T16:13:31;10.60;99.90
5508;DHT22;2776;51.046;6.772;2022-12-20T16:15:59;10.60;99.90
5508;DHT22;2776;51.046;6.772;2022-12-20T16:18:27;10.60;99.90
5508;DHT22;2776;51.046;6.772;2022-12-20T16:20:55;10.60;99.90
5508;DHT22;2776;51.046;6.772;2022-12-20T16:23:22;10.60;99.90
5508;DHT22;2776;51.046;6.772;2022-12-20T16:25:49;10.60;99.90
5508;DHT22;2776;51.046;6.772;2022-12-20T16:28:17;10.60;99.90
5508;DHT22;2776;51.046;6.772;2022-12-20T16:30:43;10.60;99.90